sensor_id;sensor_type;location;lat;lon;timestamp;P1;durP1;ratioP1;P2;durP2;ratioP2
22679;SDS011;11507;44.858;10.374;2022-11-15T00:02:24;50.92;;;23.17;;
22679;SDS011;11507;44.858;10.374;2022-11-15T00:05:11;46.75;;;21.55;;
22679;SDS011;11507;44.858;10.374;2022-11-15T00:07:56;42.90;;;20.58;;
22679;SDS011;11507;44.858;10.374;2022-11-15T00:10:40;48.75;;;21.85;;
22679;SDS011;11507;44.858;10.374;2022-11-15T00:13:26;48.50;;;21.23;;
22679;SDS011;11507;44.858;10.374;2022-11-15T00:16:11;42.78;;;20.55;;
22679;SDS011;11507;44.858;10.374;2022-11-15T00:18:55;46.72;;;21.25;;
22679;SDS011;11507;44.858;10.374;2022-11-15T00:21:41;45.97;;;21.17;;
22679;SDS011;11507;44.858;10.374;2022-11-15T00:24:26;44.90;;;21.77;;
22679;SDS011;11507;44.858;10.374;2022-11-15T00:27:11;47.53;;;21.48;;
22679;SDS011;11507;44.858;10.374;2022-11-15T00:29:58;48.00;;;21.58;;
22679;SDS011;11507;44.858;10.374;2022-11-15T00:32:42;46.58;;;21.88;;
22679;SDS011;11507;44.858;10.374;2022-11-15T00:35:26;48.65;;;22.40;;
22679;SDS011;11507;44.858;10.374;2022-11-15T00:38:11;47.03;;;20.27;;
22679;SDS011;11507;44.858;10.374;2022-11-15T00:40:57;44.15;;;20.48;;
22679;SDS011;11507;44.858;10.374;2022-11-15T00:43:41;40.03;;;20.10;;
22679;SDS011;11507;44.858;10.374;2022-11-15T00:46:27;45.58;;;20.55;;
22679;SDS011;11507;44.858;10.374;2022-11-15T00:49:12;41.53;;;19.30;;
22679;SDS011;11507;44.858;10.374;2022-11-15T00:51:56;42.55;;;20.30;;
22679;SDS011;11507;44.858;10.374;2022-11-15T00:54:41;45.60;;;20.30;;
22679;SDS011;11507;44.858;10.374;2022-11-15T00:57:25;37.75;;;18.90;;
22679;SDS011;11507;44.858;10.374;2022-11-15T01:00:09;37.72;;;18.92;;
22679;SDS011;11507;44.858;10.374;2022-11-15T01:02:55;34.33;;;17.40;;
22679;SDS011;11507;44.858;10.374;2022-11-15T01:05:42;40.30;;;18.95;;
22679;SDS011;11507;44.858;10.374;2022-11-15T01:08:26;36.30;;;18.15;;
22679;SDS011;11507;44.858;10.374;2022-11-15T01:11:12;41.42;;;19.88;;
22679;SDS011;11507;44.858;10.374;2022-11-15T01:13:57;38.92;;;19.85;;
22679;SDS011;11507;44.858;10.374;2022-11-15T01:16:41;42.15;;;20.95;;
22679;SDS011;11507;44.858;10.374;2022-11-15T01:19:26;39.88;;;19.83;;
22679;SDS011;11507;44.858;10.374;2022-11-15T01:22:10;44.40;;;22.15;;
22679;SDS011;11507;44.858;10.374;2022-11-15T01:24:55;38.22;;;18.42;;
22679;SDS011;11507;44.858;10.374;2022-11-15T01:27:40;35.45;;;17.83;;
22679;SDS011;11507;44.858;10.374;2022-11-15T01:30:25;34.80;;;18.77;;
22679;SDS011;11507;44.858;10.374;2022-11-15T01:33:09;40.88;;;20.25;;
22679;SDS011;11507;44.858;10.374;2022-11-15T01:35:54;44.13;;;21.95;;
22679;SDS011;11507;44.858;10.374;2022-11-15T01:38:39;38.10;;;17.67;;
22679;SDS011;11507;44.858;10.374;2022-11-15T01:41:25;44.38;;;21.40;;
22679;SDS011;11507;44.858;10.374;2022-11-15T01:47:16;39.83;;;20.67;;
22679;SDS011;11507;44.858;10.374;2022-11-15T01:50:26;39.10;;;20.00;;
22679;SDS011;11507;44.858;10.374;2022-11-15T01:53:15;44.42;;;21.90;;
22679;SDS011;11507;44.858;10.374;2022-11-15T01:56:04;42.30;;;22.17;;
22679;SDS011;11507;44.858;10.374;2022-11-15T01:58:51;37.83;;;19.98;;
22679;SDS011;11507;44.858;10.374;2022-11-15T02:04:30;42.42;;;21.27;;
22679;SDS011;11507;44.858;10.374;2022-11-15T02:07:18;38.92;;;20.38;;
22679;SDS011;11507;44.858;10.374;2022-11-15T02:10:09;43.58;;;21.38;;
22679;SDS011;11507;44.858;10.374;2022-11-15T02:12:58;38.03;;;19.15;;
22679;SDS011;11507;44.858;10.374;2022-11-15T02:16:09;32.63;;;16.33;;
22679;SDS011;11507;44.858;10.374;2022-11-15T02:22:00;35.38;;;17.85;;
22679;SDS011;11507;44.858;10.374;2022-11-15T02:37:59;41.60;;;20.95;;
22679;SDS011;11507;44.858;10.374;2022-11-15T02:41:13;45.30;;;22.03;;
22679;SDS011;11507;44.858;10.374;2022-11-15T02:47:00;41.40;;;20.95;;
22679;SDS011;11507;44.858;10.374;2022-11-15T02:49:58;43.42;;;19.55;;
22679;SDS011;11507;44.858;10.374;2022-11-15T02:52:50;47.88;;;21.48;;
22679;SDS011;11507;44.858;10.374;2022-11-15T02:55:40;44.60;;;20.30;;
22679;SDS011;11507;44.858;10.374;2022-11-15T03:08:10;48.40;;;20.25;;
22679;SDS011;11507;44.858;10.374;2022-11-15T03:11:07;43.88;;;20.60;;
22679;SDS011;11507;44.858;10.374;2022-11-15T03:19:52;44.55;;;20.55;;
22679;SDS011;11507;44.858;10.374;2022-11-15T03:22:40;38.50;;;18.65;;
22679;SDS011;11507;44.858;10.374;2022-11-15T03:25:28;43.80;;;20.67;;
22679;SDS011;11507;44.858;10.374;2022-11-15T03:31:02;37.50;;;18.67;;
22679;SDS011;11507;44.858;10.374;2022-11-15T03:34:14;39.92;;;18.70;;
22679;SDS011;11507;44.858;10.374;2022-11-15T03:37:11;38.72;;;18.45;;
22679;SDS011;11507;44.858;10.374;2022-11-15T03:39:59;41.80;;;20.77;;
22679;SDS011;11507;44.858;10.374;2022-11-15T03:42:58;36.08;;;17.90;;
22679;SDS011;11507;44.858;10.374;2022-11-15T03:45:53;39.72;;;18.15;;
22679;SDS011;11507;44.858;10.374;2022-11-15T03:49:04;36.97;;;17.33;;
22679;SDS011;11507;44.858;10.374;2022-11-15T03:52:10;38.65;;;16.63;;
22679;SDS011;11507;44.858;10.374;2022-11-15T03:54:55;34.75;;;17.55;;
22679;SDS011;11507;44.858;10.374;2022-11-15T03:57:40;38.85;;;17.70;;
22679;SDS011;11507;44.858;10.374;2022-11-15T04:00:25;40.03;;;18.98;;
22679;SDS011;11507;44.858;10.374;2022-11-15T04:03:11;47.03;;;19.85;;
22679;SDS011;11507;44.858;10.374;2022-11-15T04:05:55;50.65;;;22.17;;
22679;SDS011;11507;44.858;10.374;2022-11-15T04:08:41;57.97;;;22.88;;
22679;SDS011;11507;44.858;10.374;2022-11-15T04:11:26;55.55;;;22.58;;
22679;SDS011;11507;44.858;10.374;2022-11-15T04:14:12;56.67;;;22.75;;
22679;SDS011;11507;44.858;10.374;2022-11-15T04:16:57;51.47;;;21.65;;
22679;SDS011;11507;44.858;10.374;2022-11-15T04:19:42;50.40;;;21.23;;
22679;SDS011;11507;44.858;10.374;2022-11-15T04:22:45;54.03;;;21.88;;
22679;SDS011;11507;44.858;10.374;2022-11-15T04:25:49;46.70;;;21.63;;
22679;SDS011;11507;44.858;10.374;2022-11-15T04:31:43;47.35;;;21.85;;
22679;SDS011;11507;44.858;10.374;2022-11-15T04:34:27;46.28;;;20.65;;
22679;SDS011;11507;44.858;10.374;2022-11-15T04:37:11;46.92;;;20.35;;
22679;SDS011;11507;44.858;10.374;2022-11-15T04:39:56;39.28;;;20.25;;
22679;SDS011;11507;44.858;10.374;2022-11-15T04:42:40;42.88;;;20.05;;
22679;SDS011;11507;44.858;10.374;2022-11-15T04:45:28;43.13;;;21.23;;
22679;SDS011;11507;44.858;10.374;2022-11-15T04:48:13;41.03;;;19.67;;
22679;SDS011;11507;44.858;10.374;2022-11-15T04:50:58;39.45;;;20.27;;
22679;SDS011;11507;44.858;10.374;2022-11-15T04:53:43;40.53;;;19.77;;
22679;SDS011;11507;44.858;10.374;2022-11-15T04:56:27;37.20;;;19.10;;
22679;SDS011;11507;44.858;10.374;2022-11-15T04:59:11;39.83;;;20.05;;
22679;SDS011;11507;44.858;10.374;2022-11-15T05:01:56;39.45;;;19.92;;
22679;SDS011;11507;44.858;10.374;2022-11-15T05:04:41;44.50;;;22.13;;
22679;SDS011;11507;44.858;10.374;2022-11-15T05:07:25;43.42;;;19.67;;
22679;SDS011;11507;44.858;10.374;2022-11-15T05:10:11;39.78;;;19.40;;
22679;SDS011;11507;44.858;10.374;2022-11-15T05:12:55;41.65;;;20.17;;
22679;SDS011;11507;44.858;10.374;2022-11-15T05:15:40;40.95;;;20.45;;
22679;SDS011;11507;44.858;10.374;2022-11-15T05:18:25;39.63;;;19.35;;
22679;SDS011;11507;44.858;10.374;2022-11-15T05:21:11;38.13;;;18.88;;
22679;SDS011;11507;44.858;10.374;2022-11-15T05:26:41;40.15;;;19.10;;
22679;SDS011;11507;44.858;10.374;2022-11-15T05:29:25;36.30;;;18.17;;
22679;SDS011;11507;44.858;10.374;2022-11-15T05:32:10;39.00;;;19.70;;
22679;SDS011;11507;44.858;10.374;2022-11-15T05:34:56;38.22;;;19.83;;
22679;SDS011;11507;44.858;10.374;2022-11-15T05:37:40;41.00;;;19.95;;
22679;SDS011;11507;44.858;10.374;2022-11-15T05:40:25;38.63;;;20.08;;
22679;SDS011;11507;44.858;10.374;2022-11-15T05:43:11;38.35;;;19.88;;
22679;SDS011;11507;44.858;10.374;2022-11-15T05:45:55;40.45;;;19.20;;
22679;SDS011;11507;44.858;10.374;2022-11-15T05:48:43;29.53;;;14.80;;
22679;SDS011;11507;44.858;10.374;2022-11-15T05:51:30;41.55;;;19.33;;
22679;SDS011;11507;44.858;10.374;2022-11-15T05:54:15;40.03;;;20.48;;
22679;SDS011;11507;44.858;10.374;2022-11-15T05:57:01;36.13;;;18.33;;
22679;SDS011;11507;44.858;10.374;2022-11-15T05:59:45;38.78;;;20.17;;
22679;SDS011;11507;44.858;10.374;2022-11-15T06:02:30;38.35;;;18.05;;
22679;SDS011;11507;44.858;10.374;2022-11-15T06:05:15;39.83;;;20.08;;
22679;SDS011;11507;44.858;10.374;2022-11-15T06:08:00;37.75;;;18.67;;
22679;SDS011;11507;44.858;10.374;2022-11-15T06:10:46;36.15;;;18.05;;
22679;SDS011;11507;44.858;10.374;2022-11-15T06:13:31;41.30;;;19.65;;
22679;SDS011;11507;44.858;10.374;2022-11-15T06:16:17;38.80;;;19.70;;
22679;SDS011;11507;44.858;10.374;2022-11-15T06:19:03;38.80;;;19.53;;
22679;SDS011;11507;44.858;10.374;2022-11-15T06:21:50;38.05;;;19.48;;
22679;SDS011;11507;44.858;10.374;2022-11-15T06:24:35;34.13;;;17.60;;
22679;SDS011;11507;44.858;10.374;2022-11-15T06:27:19;39.38;;;19.30;;
22679;SDS011;11507;44.858;10.374;2022-11-15T06:30:09;36.28;;;18.10;;
22679;SDS011;11507;44.858;10.374;2022-11-15T06:33:00;38.85;;;18.70;;
22679;SDS011;11507;44.858;10.374;2022-11-15T06:35:50;36.65;;;19.40;;
22679;SDS011;11507;44.858;10.374;2022-11-15T06:38:36;41.03;;;21.08;;
22679;SDS011;11507;44.858;10.374;2022-11-15T06:41:21;44.22;;;20.90;;
22679;SDS011;11507;44.858;10.374;2022-11-15T06:44:07;37.22;;;18.23;;
22679;SDS011;11507;44.858;10.374;2022-11-15T06:46:52;34.78;;;18.08;;
22679;SDS011;11507;44.858;10.374;2022-11-15T06:49:36;38.13;;;17.33;;
22679;SDS011;11507;44.858;10.374;2022-11-15T06:52:20;40.88;;;19.77;;
22679;SDS011;11507;44.858;10.374;2022-11-15T06:55:06;42.85;;;20.45;;
22679;SDS011;11507;44.858;10.374;2022-11-15T06:57:52;39.67;;;19.77;;
22679;SDS011;11507;44.858;10.374;2022-11-15T07:00:36;37.95;;;18.95;;
22679;SDS011;11507;44.858;10.374;2022-11-15T07:03:21;37.35;;;18.48;;
22679;SDS011;11507;44.858;10.374;2022-11-15T07:06:07;35.80;;;18.95;;
22679;SDS011;11507;44.858;10.374;2022-11-15T07:08:52;40.90;;;19.42;;
22679;SDS011;11507;44.858;10.374;2022-11-15T07:11:36;36.80;;;19.38;;
22679;SDS011;11507;44.858;10.374;2022-11-15T07:14:21;39.28;;;19.50;;
22679;SDS011;11507;44.858;10.374;2022-11-15T07:17:05;38.63;;;20.30;;
22679;SDS011;11507;44.858;10.374;2022-11-15T07:19:51;43.92;;;21.17;;
22679;SDS011;11507;44.858;10.374;2022-11-15T07:22:36;41.38;;;19.95;;
22679;SDS011;11507;44.858;10.374;2022-11-15T07:25:21;38.55;;;19.42;;
22679;SDS011;11507;44.858;10.374;2022-11-15T07:28:07;40.38;;;20.15;;
22679;SDS011;11507;44.858;10.374;2022-11-15T07:30:51;41.00;;;19.90;;
22679;SDS011;11507;44.858;10.374;2022-11-15T07:33:36;39.28;;;19.73;;
22679;SDS011;11507;44.858;10.374;2022-11-15T07:36:20;38.40;;;19.50;;
22679;SDS011;11507;44.858;10.374;2022-11-15T07:39:05;41.08;;;20.45;;
22679;SDS011;11507;44.858;10.374;2022-11-15T07:41:49;43.92;;;19.88;;
22679;SDS011;11507;44.858;10.374;2022-11-15T07:44:53;42.22;;;20.48;;
22679;SDS011;11507;44.858;10.374;2022-11-15T07:47:38;38.95;;;19.75;;
22679;SDS011;11507;44.858;10.374;2022-11-15T07:50:23;42.50;;;20.70;;
22679;SDS011;11507;44.858;10.374;2022-11-15T07:53:08;45.58;;;22.20;;
22679;SDS011;11507;44.858;10.374;2022-11-15T07:55:53;44.95;;;21.98;;
22679;SDS011;11507;44.858;10.374;2022-11-15T07:58:38;47.67;;;22.50;;
22679;SDS011;11507;44.858;10.374;2022-11-15T08:01:23;46.33;;;22.27;;
22679;SDS011;11507;44.858;10.374;2022-11-15T08:04:09;43.22;;;21.90;;
22679;SDS011;11507;44.858;10.374;2022-11-15T08:06:54;43.03;;;20.58;;
22679;SDS011;11507;44.858;10.374;2022-11-15T08:09:39;42.72;;;20.58;;
22679;SDS011;11507;44.858;10.374;2022-11-15T08:12:23;37.58;;;19.20;;
22679;SDS011;11507;44.858;10.374;2022-11-15T08:15:07;38.95;;;19.63;;
22679;SDS011;11507;44.858;10.374;2022-11-15T08:17:53;34.70;;;19.02;;
22679;SDS011;11507;44.858;10.374;2022-11-15T08:20:42;39.60;;;19.58;;
22679;SDS011;11507;44.858;10.374;2022-11-15T08:23:27;34.78;;;19.17;;
22679;SDS011;11507;44.858;10.374;2022-11-15T08:26:12;34.35;;;18.55;;
22679;SDS011;11507;44.858;10.374;2022-11-15T08:28:57;37.65;;;19.92;;
22679;SDS011;11507;44.858;10.374;2022-11-15T08:31:41;36.60;;;19.65;;
22679;SDS011;11507;44.858;10.374;2022-11-15T08:34:26;36.08;;;19.20;;
22679;SDS011;11507;44.858;10.374;2022-11-15T08:37:11;35.78;;;19.25;;
22679;SDS011;11507;44.858;10.374;2022-11-15T08:39:55;33.70;;;18.85;;
22679;SDS011;11507;44.858;10.374;2022-11-15T08:42:39;35.35;;;19.17;;
22679;SDS011;11507;44.858;10.374;2022-11-15T08:45:24;33.15;;;18.88;;
22679;SDS011;11507;44.858;10.374;2022-11-15T08:48:09;38.28;;;19.20;;
22679;SDS011;11507;44.858;10.374;2022-11-15T08:50:54;35.15;;;18.63;;
22679;SDS011;11507;44.858;10.374;2022-11-15T08:53:39;33.08;;;18.08;;
22679;SDS011;11507;44.858;10.374;2022-11-15T08:56:26;38.03;;;20.10;;
22679;SDS011;11507;44.858;10.374;2022-11-15T08:59:10;35.10;;;19.42;;
22679;SDS011;11507;44.858;10.374;2022-11-15T09:01:54;35.95;;;18.92;;
22679;SDS011;11507;44.858;10.374;2022-11-15T09:04:43;35.33;;;19.58;;
22679;SDS011;11507;44.858;10.374;2022-11-15T09:07:30;38.63;;;19.20;;
22679;SDS011;11507;44.858;10.374;2022-11-15T09:10:15;35.17;;;19.08;;
22679;SDS011;11507;44.858;10.374;2022-11-15T09:13:00;38.55;;;21.30;;
22679;SDS011;11507;44.858;10.374;2022-11-15T09:15:45;37.53;;;20.80;;
22679;SDS011;11507;44.858;10.374;2022-11-15T09:18:29;37.53;;;20.58;;
22679;SDS011;11507;44.858;10.374;2022-11-15T09:21:14;39.55;;;19.98;;
22679;SDS011;11507;44.858;10.374;2022-11-15T09:23:59;39.42;;;20.63;;
22679;SDS011;11507;44.858;10.374;2022-11-15T09:26:44;38.08;;;19.95;;
22679;SDS011;11507;44.858;10.374;2022-11-15T09:29:29;43.25;;;21.88;;
22679;SDS011;11507;44.858;10.374;2022-11-15T09:32:13;43.92;;;23.95;;
22679;SDS011;11507;44.858;10.374;2022-11-15T09:34:59;42.10;;;23.75;;
22679;SDS011;11507;44.858;10.374;2022-11-15T09:37:44;42.50;;;22.33;;
22679;SDS011;11507;44.858;10.374;2022-11-15T09:40:32;39.13;;;21.60;;
22679;SDS011;11507;44.858;10.374;2022-11-15T09:46:12;39.95;;;20.95;;
22679;SDS011;11507;44.858;10.374;2022-11-15T09:49:01;38.15;;;21.38;;
22679;SDS011;11507;44.858;10.374;2022-11-15T09:51:59;39.85;;;21.35;;
22679;SDS011;11507;44.858;10.374;2022-11-15T09:57:10;39.80;;;21.85;;
22679;SDS011;11507;44.858;10.374;2022-11-15T10:05:14;41.73;;;22.20;;
22679;SDS011;11507;44.858;10.374;2022-11-15T10:10:39;49.03;;;25.33;;
22679;SDS011;11507;44.858;10.374;2022-11-15T10:13:23;45.35;;;23.13;;
22679;SDS011;11507;44.858;10.374;2022-11-15T10:15:53;44.85;;;24.33;;
22679;SDS011;11507;44.858;10.374;2022-11-15T10:18:34;46.83;;;24.05;;
22679;SDS011;11507;44.858;10.374;2022-11-15T10:21:17;45.13;;;23.83;;
22679;SDS011;11507;44.858;10.374;2022-11-15T10:23:45;45.15;;;23.73;;
22679;SDS011;11507;44.858;10.374;2022-11-15T10:28:40;46.45;;;22.55;;
22679;SDS011;11507;44.858;10.374;2022-11-15T10:31:20;48.70;;;25.02;;
22679;SDS011;11507;44.858;10.374;2022-11-15T10:33:57;45.75;;;23.73;;
22679;SDS011;11507;44.858;10.374;2022-11-15T10:36:45;46.72;;;23.38;;
22679;SDS011;11507;44.858;10.374;2022-11-15T10:39:20;46.50;;;24.80;;
22679;SDS011;11507;44.858;10.374;2022-11-15T10:41:46;47.40;;;23.90;;
22679;SDS011;11507;44.858;10.374;2022-11-15T10:46:40;48.63;;;25.70;;
22679;SDS011;11507;44.858;10.374;2022-11-15T10:49:14;44.45;;;22.63;;
22679;SDS011;11507;44.858;10.374;2022-11-15T10:51:42;45.47;;;24.30;;
22679;SDS011;11507;44.858;10.374;2022-11-15T10:54:23;46.20;;;23.67;;
22679;SDS011;11507;44.858;10.374;2022-11-15T10:56:59;46.50;;;23.52;;
22679;SDS011;11507;44.858;10.374;2022-11-15T10:59:31;46.40;;;24.55;;
22679;SDS011;11507;44.858;10.374;2022-11-15T11:01:58;45.92;;;24.60;;
22679;SDS011;11507;44.858;10.374;2022-11-15T11:04:25;45.65;;;25.33;;
22679;SDS011;11507;44.858;10.374;2022-11-15T11:06:52;47.40;;;25.42;;
22679;SDS011;11507;44.858;10.374;2022-11-15T11:09:25;47.47;;;25.58;;
22679;SDS011;11507;44.858;10.374;2022-11-15T11:11:56;47.05;;;24.52;;
22679;SDS011;11507;44.858;10.374;2022-11-15T11:31:07;45.08;;;25.00;;
22679;SDS011;11507;44.858;10.374;2022-11-15T11:33:39;53.65;;;29.92;;
22679;SDS011;11507;44.858;10.374;2022-11-15T11:36:34;70.82;;;40.13;;
22679;SDS011;11507;44.858;10.374;2022-11-15T11:47:32;52.38;;;26.48;;
22679;SDS011;11507;44.858;10.374;2022-11-15T11:55:47;51.53;;;28.67;;
22679;SDS011;11507;44.858;10.374;2022-11-15T12:04:01;51.37;;;27.20;;
22679;SDS011;11507;44.858;10.374;2022-11-15T12:09:38;55.35;;;27.75;;
22679;SDS011;11507;44.858;10.374;2022-11-15T12:17:29;50.35;;;27.40;;
22679;SDS011;11507;44.858;10.374;2022-11-15T12:20:02;55.33;;;29.10;;
22679;SDS011;11507;44.858;10.374;2022-11-15T12:22:38;53.45;;;28.38;;
22679;SDS011;11507;44.858;10.374;2022-11-15T12:25:14;54.97;;;28.55;;
22679;SDS011;11507;44.858;10.374;2022-11-15T12:27:50;48.40;;;26.08;;
22679;SDS011;11507;44.858;10.374;2022-11-15T12:30:38;48.58;;;27.20;;
22679;SDS011;11507;44.858;10.374;2022-11-15T12:33:37;49.05;;;26.90;;
22679;SDS011;11507;44.858;10.374;2022-11-15T12:41:22;50.30;;;27.88;;
22679;SDS011;11507;44.858;10.374;2022-11-15T12:43:50;49.60;;;26.73;;
22679;SDS011;11507;44.858;10.374;2022-11-15T13:02:20;97.90;;;55.67;;
22679;SDS011;11507;44.858;10.374;2022-11-15T13:04:52;104.80;;;56.08;;
22679;SDS011;11507;44.858;10.374;2022-11-15T13:12:54;46.58;;;25.88;;
22679;SDS011;11507;44.858;10.374;2022-11-15T13:15:32;51.53;;;27.70;;
22679;SDS011;11507;44.858;10.374;2022-11-15T13:18:23;53.35;;;29.63;;
22679;SDS011;11507;44.858;10.374;2022-11-15T13:20:49;52.20;;;28.63;;
22679;SDS011;11507;44.858;10.374;2022-11-15T13:33:31;48.03;;;26.30;;
22679;SDS011;11507;44.858;10.374;2022-11-15T13:36:06;45.10;;;25.23;;
22679;SDS011;11507;44.858;10.374;2022-11-15T13:38:39;46.08;;;24.95;;
22679;SDS011;11507;44.858;10.374;2022-11-15T13:43:48;46.35;;;26.25;;
22679;SDS011;11507;44.858;10.374;2022-11-15T13:46:19;46.20;;;26.02;;
22679;SDS011;11507;44.858;10.374;2022-11-15T13:54:19;47.30;;;24.85;;
22679;SDS011;11507;44.858;10.374;2022-11-15T13:56:52;44.55;;;24.80;;
22679;SDS011;11507;44.858;10.374;2022-11-15T14:04:17;42.38;;;23.80;;
22679;SDS011;11507;44.858;10.374;2022-11-15T14:06:47;44.50;;;23.67;;
22679;SDS011;11507;44.858;10.374;2022-11-15T14:09:24;42.80;;;23.60;;
22679;SDS011;11507;44.858;10.374;2022-11-15T14:11:59;43.42;;;24.00;;
22679;SDS011;11507;44.858;10.374;2022-11-15T14:14:27;43.65;;;24.25;;
22679;SDS011;11507;44.858;10.374;2022-11-15T14:16:56;41.92;;;24.15;;
22679;SDS011;11507;44.858;10.374;2022-11-15T14:24:35;46.10;;;24.38;;
22679;SDS011;11507;44.858;10.374;2022-11-15T14:27:21;49.80;;;26.75;;
22679;SDS011;11507;44.858;10.374;2022-11-15T14:29:51;45.85;;;25.58;;
22679;SDS011;11507;44.858;10.374;2022-11-15T14:32:19;45.00;;;25.63;;
22679;SDS011;11507;44.858;10.374;2022-11-15T14:34:56;46.17;;;24.70;;
22679;SDS011;11507;44.858;10.374;2022-11-15T14:37:28;46.25;;;25.85;;
22679;SDS011;11507;44.858;10.374;2022-11-15T14:40:00;46.17;;;25.42;;
22679;SDS011;11507;44.858;10.374;2022-11-15T14:42:28;46.85;;;23.98;;
22679;SDS011;11507;44.858;10.374;2022-11-15T14:44:55;46.60;;;25.67;;
22679;SDS011;11507;44.858;10.374;2022-11-15T14:47:21;43.63;;;23.55;;
22679;SDS011;11507;44.858;10.374;2022-11-15T14:52:26;46.95;;;24.88;;
22679;SDS011;11507;44.858;10.374;2022-11-15T14:54:54;48.00;;;25.45;;
22679;SDS011;11507;44.858;10.374;2022-11-15T14:57:21;51.20;;;25.70;;
22679;SDS011;11507;44.858;10.374;2022-11-15T14:59:48;49.95;;;26.35;;
22679;SDS011;11507;44.858;10.374;2022-11-15T15:02:16;42.40;;;24.45;;
22679;SDS011;11507;44.858;10.374;2022-11-15T15:04:47;43.65;;;24.42;;
22679;SDS011;11507;44.858;10.374;2022-11-15T15:07:13;49.22;;;25.75;;
22679;SDS011;11507;44.858;10.374;2022-11-15T15:12:11;46.70;;;24.60;;
22679;SDS011;11507;44.858;10.374;2022-11-15T15:14:43;46.10;;;24.38;;
22679;SDS011;11507;44.858;10.374;2022-11-15T15:17:10;45.97;;;23.95;;
22679;SDS011;11507;44.858;10.374;2022-11-15T15:22:01;47.45;;;23.02;;
22679;SDS011;11507;44.858;10.374;2022-11-15T15:24:27;44.88;;;23.80;;
22679;SDS011;11507;44.858;10.374;2022-11-15T15:29:19;42.58;;;22.77;;
22679;SDS011;11507;44.858;10.374;2022-11-15T15:34:10;41.45;;;22.15;;
22679;SDS011;11507;44.858;10.374;2022-11-15T15:39:02;37.65;;;21.30;;
22679;SDS011;11507;44.858;10.374;2022-11-15T15:43:55;42.33;;;22.45;;
22679;SDS011;11507;44.858;10.374;2022-11-15T15:48:46;43.22;;;22.83;;
22679;SDS011;11507;44.858;10.374;2022-11-15T15:53:38;39.38;;;21.08;;
22679;SDS011;11507;44.858;10.374;2022-11-15T15:58:33;43.85;;;22.75;;
22679;SDS011;11507;44.858;10.374;2022-11-15T16:00:59;43.58;;;23.27;;
22679;SDS011;11507;44.858;10.374;2022-11-15T16:05:52;42.17;;;22.95;;
22679;SDS011;11507;44.858;10.374;2022-11-15T16:08:22;44.05;;;23.02;;
22679;SDS011;11507;44.858;10.374;2022-11-15T16:10:49;40.58;;;22.15;;
22679;SDS011;11507;44.858;10.374;2022-11-15T16:13:15;40.50;;;22.05;;
22679;SDS011;11507;44.858;10.374;2022-11-15T16:15:42;40.25;;;22.48;;
22679;SDS011;11507;44.858;10.374;2022-11-15T16:18:14;38.63;;;21.42;;
22679;SDS011;11507;44.858;10.374;2022-11-15T16:20:42;43.17;;;22.13;;
22679;SDS011;11507;44.858;10.374;2022-11-15T16:23:10;40.88;;;22.42;;
22679;SDS011;11507;44.858;10.374;2022-11-15T16:25:49;41.92;;;21.90;;
22679;SDS011;11507;44.858;10.374;2022-11-15T16:28:21;40.63;;;22.30;;
22679;SDS011;11507;44.858;10.374;2022-11-15T16:31:09;41.08;;;22.13;;
22679;SDS011;11507;44.858;10.374;2022-11-15T16:33:35;40.25;;;22.75;;
22679;SDS011;11507;44.858;10.374;2022-11-15T16:38:28;39.20;;;20.38;;
22679;SDS011;11507;44.858;10.374;2022-11-15T16:40:54;40.30;;;21.85;;
22679;SDS011;11507;44.858;10.374;2022-11-15T16:45:46;39.05;;;21.17;;
22679;SDS011;11507;44.858;10.374;2022-11-15T16:48:21;39.63;;;21.33;;
22679;SDS011;11507;44.858;10.374;2022-11-15T16:50:50;38.63;;;20.85;;
22679;SDS011;11507;44.858;10.374;2022-11-15T16:53:20;35.60;;;19.60;;
22679;SDS011;11507;44.858;10.374;2022-11-15T16:58:12;33.22;;;19.20;;
22679;SDS011;11507;44.858;10.374;2022-11-15T17:03:03;34.50;;;19.73;;
22679;SDS011;11507;44.858;10.374;2022-11-15T17:07:55;33.60;;;19.83;;
22679;SDS011;11507;44.858;10.374;2022-11-15T17:10:22;37.17;;;20.83;;
22679;SDS011;11507;44.858;10.374;2022-11-15T17:12:49;36.28;;;21.15;;
22679;SDS011;11507;44.858;10.374;2022-11-15T17:15:16;35.45;;;21.08;;
22679;SDS011;11507;44.858;10.374;2022-11-15T17:17:43;36.95;;;21.85;;
22679;SDS011;11507;44.858;10.374;2022-11-15T17:20:14;36.88;;;21.65;;
22679;SDS011;11507;44.858;10.374;2022-11-15T17:22:41;37.10;;;22.75;;
22679;SDS011;11507;44.858;10.374;2022-11-15T17:27:33;33.63;;;20.42;;
22679;SDS011;11507;44.858;10.374;2022-11-15T17:32:24;36.80;;;21.58;;
22679;SDS011;11507;44.858;10.374;2022-11-15T17:37:17;33.10;;;20.95;;
22679;SDS011;11507;44.858;10.374;2022-11-15T17:42:08;38.85;;;22.25;;
22679;SDS011;11507;44.858;10.374;2022-11-15T17:47:00;37.00;;;22.02;;
22679;SDS011;11507;44.858;10.374;2022-11-15T17:51:51;35.80;;;21.80;;
22679;SDS011;11507;44.858;10.374;2022-11-15T17:54:17;34.30;;;21.70;;
22679;SDS011;11507;44.858;10.374;2022-11-15T17:59:09;35.53;;;21.13;;
22679;SDS011;11507;44.858;10.374;2022-11-15T18:04:03;35.60;;;21.65;;
22679;SDS011;11507;44.858;10.374;2022-11-15T18:06:32;33.75;;;21.30;;
22679;SDS011;11507;44.858;10.374;2022-11-15T18:08:59;37.03;;;22.73;;
22679;SDS011;11507;44.858;10.374;2022-11-15T18:11:30;36.00;;;22.08;;
22679;SDS011;11507;44.858;10.374;2022-11-15T18:13:59;34.83;;;22.85;;
22679;SDS011;11507;44.858;10.374;2022-11-15T18:16:29;33.95;;;22.27;;
22679;SDS011;11507;44.858;10.374;2022-11-15T18:18:57;36.65;;;23.15;;
22679;SDS011;11507;44.858;10.374;2022-11-15T18:21:24;35.45;;;22.23;;
22679;SDS011;11507;44.858;10.374;2022-11-15T18:23:59;34.95;;;22.95;;
22679;SDS011;11507;44.858;10.374;2022-11-15T18:26:28;35.63;;;22.20;;
22679;SDS011;11507;44.858;10.374;2022-11-15T18:28:55;34.80;;;21.85;;
22679;SDS011;11507;44.858;10.374;2022-11-15T18:31:27;33.40;;;21.52;;
22679;SDS011;11507;44.858;10.374;2022-11-15T18:33:54;32.22;;;21.30;;
22679;SDS011;11507;44.858;10.374;2022-11-15T18:36:23;32.65;;;21.15;;
22679;SDS011;11507;44.858;10.374;2022-11-15T18:38:54;35.22;;;21.25;;
22679;SDS011;11507;44.858;10.374;2022-11-15T18:41:26;32.22;;;20.77;;
22679;SDS011;11507;44.858;10.374;2022-11-15T18:43:56;31.45;;;21.25;;
22679;SDS011;11507;44.858;10.374;2022-11-15T18:46:29;29.45;;;19.48;;
22679;SDS011;11507;44.858;10.374;2022-11-15T18:48:57;32.95;;;21.00;;
22679;SDS011;11507;44.858;10.374;2022-11-15T18:51:25;31.48;;;20.45;;
22679;SDS011;11507;44.858;10.374;2022-11-15T18:53:56;33.80;;;21.42;;
22679;SDS011;11507;44.858;10.374;2022-11-15T18:56:24;32.67;;;21.35;;
22679;SDS011;11507;44.858;10.374;2022-11-15T18:58:56;32.63;;;20.35;;
22679;SDS011;11507;44.858;10.374;2022-11-15T19:01:24;31.73;;;20.98;;
22679;SDS011;11507;44.858;10.374;2022-11-15T19:03:57;32.72;;;20.67;;
22679;SDS011;11507;44.858;10.374;2022-11-15T19:08:50;32.33;;;20.58;;
22679;SDS011;11507;44.858;10.374;2022-11-15T19:11:22;28.88;;;19.83;;